sensor_id;sensor_type;location;lat;lon;timestamp;P1;durP1;ratioP1;P2;durP2;ratioP2
21507;SDS011;10915;54.352;9.074;2022-08-03T00:01:16;14.27;;;10.07;;
21507;SDS011;10915;54.352;9.074;2022-08-03T00:03:42;13.80;;;11.13;;
21507;SDS011;10915;54.352;9.074;2022-08-03T00:06:08;13.70;;;11.20;;
21507;SDS011;10915;54.352;9.074;2022-08-03T00:08:33;18.70;;;10.30;;
21507;SDS011;10915;54.352;9.074;2022-08-03T00:10:59;14.80;;;10.97;;
21507;SDS011;10915;54.352;9.074;2022-08-03T00:13:25;13.90;;;10.90;;
21507;SDS011;10915;54.352;9.074;2022-08-03T00:15:51;19.30;;;11.77;;
21507;SDS011;10915;54.352;9.074;2022-08-03T00:18:17;13.87;;;10.27;;
21507;SDS011;10915;54.352;9.074;2022-08-03T00:20:43;12.27;;;10.07;;
21507;SDS011;10915;54.352;9.074;2022-08-03T00:23:10;12.40;;;10.83;;
21507;SDS011;10915;54.352;9.074;2022-08-03T00:25:35;12.07;;;9.93;;
21507;SDS011;10915;54.352;9.074;2022-08-03T00:28:04;14.83;;;10.67;;
21507;SDS011;10915;54.352;9.074;2022-08-03T00:30:30;12.23;;;10.43;;
21507;SDS011;10915;54.352;9.074;2022-08-03T00:32:57;12.90;;;11.07;;
21507;SDS011;10915;54.352;9.074;2022-08-03T00:35:23;12.60;;;10.20;;
21507;SDS011;10915;54.352;9.074;2022-08-03T00:37:49;13.83;;;10.27;;
21507;SDS011;10915;54.352;9.074;2022-08-03T00:40:16;16.13;;;10.67;;
21507;SDS011;10915;54.352;9.074;2022-08-03T00:42:46;19.70;;;12.67;;
21507;SDS011;10915;54.352;9.074;2022-08-03T00:45:17;16.33;;;13.87;;
21507;SDS011;10915;54.352;9.074;2022-08-03T00:47:45;17.43;;;12.80;;
21507;SDS011;10915;54.352;9.074;2022-08-03T00:50:11;16.30;;;14.13;;
21507;SDS011;10915;54.352;9.074;2022-08-03T00:52:37;18.97;;;14.13;;
21507;SDS011;10915;54.352;9.074;2022-08-03T00:55:03;18.20;;;13.90;;
21507;SDS011;10915;54.352;9.074;2022-08-03T00:57:29;19.77;;;12.20;;
21507;SDS011;10915;54.352;9.074;2022-08-03T00:59:56;15.03;;;13.07;;
21507;SDS011;10915;54.352;9.074;2022-08-03T01:02:24;18.30;;;13.80;;
21507;SDS011;10915;54.352;9.074;2022-08-03T01:04:51;18.90;;;14.37;;
21507;SDS011;10915;54.352;9.074;2022-08-03T01:18:51;18.80;;;13.37;;
21507;SDS011;10915;54.352;9.074;2022-08-03T01:24:34;16.67;;;13.87;;
21507;SDS011;10915;54.352;9.074;2022-08-03T01:27:11;17.23;;;12.50;;
21507;SDS011;10915;54.352;9.074;2022-08-03T01:35:13;14.27;;;10.83;;
21507;SDS011;10915;54.352;9.074;2022-08-03T01:37:46;12.37;;;11.00;;
21507;SDS011;10915;54.352;9.074;2022-08-03T01:40:15;17.02;;;14.27;;
21507;SDS011;10915;54.352;9.074;2022-08-03T01:42:43;15.23;;;11.93;;
21507;SDS011;10915;54.352;9.074;2022-08-03T01:45:11;14.43;;;12.23;;
21507;SDS011;10915;54.352;9.074;2022-08-03T01:47:38;18.17;;;13.73;;
21507;SDS011;10915;54.352;9.074;2022-08-03T01:50:05;16.40;;;12.33;;
21507;SDS011;10915;54.352;9.074;2022-08-03T01:52:33;15.53;;;12.57;;
21507;SDS011;10915;54.352;9.074;2022-08-03T01:55:01;15.87;;;11.97;;
21507;SDS011;10915;54.352;9.074;2022-08-03T01:57:27;13.60;;;12.17;;
21507;SDS011;10915;54.352;9.074;2022-08-03T01:59:54;15.53;;;12.80;;
21507;SDS011;10915;54.352;9.074;2022-08-03T02:02:23;17.47;;;12.37;;
21507;SDS011;10915;54.352;9.074;2022-08-03T02:04:50;15.30;;;12.50;;
21507;SDS011;10915;54.352;9.074;2022-08-03T02:07:18;17.70;;;14.17;;
21507;SDS011;10915;54.352;9.074;2022-08-03T02:09:45;18.50;;;12.67;;
21507;SDS011;10915;54.352;9.074;2022-08-03T02:12:14;15.48;;;13.80;;
21507;SDS011;10915;54.352;9.074;2022-08-03T02:14:42;17.80;;;14.47;;
21507;SDS011;10915;54.352;9.074;2022-08-03T02:17:09;20.53;;;14.63;;
21507;SDS011;10915;54.352;9.074;2022-08-03T02:19:37;16.53;;;12.90;;
21507;SDS011;10915;54.352;9.074;2022-08-03T02:22:06;19.00;;;15.07;;
21507;SDS011;10915;54.352;9.074;2022-08-03T02:24:34;18.53;;;14.17;;
21507;SDS011;10915;54.352;9.074;2022-08-03T02:27:00;16.03;;;13.73;;
21507;SDS011;10915;54.352;9.074;2022-08-03T02:29:31;19.00;;;15.03;;
21507;SDS011;10915;54.352;9.074;2022-08-03T02:31:59;17.33;;;14.80;;
21507;SDS011;10915;54.352;9.074;2022-08-03T02:34:28;18.27;;;13.83;;
21507;SDS011;10915;54.352;9.074;2022-08-03T02:36:58;16.30;;;13.87;;
21507;SDS011;10915;54.352;9.074;2022-08-03T02:39:24;18.00;;;15.30;;
21507;SDS011;10915;54.352;9.074;2022-08-03T02:41:55;20.13;;;13.70;;
21507;SDS011;10915;54.352;9.074;2022-08-03T02:44:26;16.77;;;14.30;;
21507;SDS011;10915;54.352;9.074;2022-08-03T02:46:55;20.57;;;15.50;;
21507;SDS011;10915;54.352;9.074;2022-08-03T02:49:25;18.73;;;14.73;;
21507;SDS011;10915;54.352;9.074;2022-08-03T02:51:52;18.63;;;15.57;;
21507;SDS011;10915;54.352;9.074;2022-08-03T02:54:20;17.27;;;14.57;;
21507;SDS011;10915;54.352;9.074;2022-08-03T02:56:48;18.63;;;14.87;;
21507;SDS011;10915;54.352;9.074;2022-08-03T02:59:17;23.27;;;14.93;;
21507;SDS011;10915;54.352;9.074;2022-08-03T03:01:45;18.27;;;14.63;;
21507;SDS011;10915;54.352;9.074;2022-08-03T03:04:11;19.47;;;14.50;;
21507;SDS011;10915;54.352;9.074;2022-08-03T03:06:38;18.10;;;14.70;;
21507;SDS011;10915;54.352;9.074;2022-08-03T03:09:05;17.37;;;13.83;;
21507;SDS011;10915;54.352;9.074;2022-08-03T03:11:32;17.80;;;14.73;;
21507;SDS011;10915;54.352;9.074;2022-08-03T03:14:00;17.07;;;14.00;;
21507;SDS011;10915;54.352;9.074;2022-08-03T03:16:26;17.93;;;14.27;;
21507;SDS011;10915;54.352;9.074;2022-08-03T03:18:54;21.27;;;13.70;;
21507;SDS011;10915;54.352;9.074;2022-08-03T03:21:21;15.87;;;12.50;;
21507;SDS011;10915;54.352;9.074;2022-08-03T03:23:47;16.93;;;12.70;;
21507;SDS011;10915;54.352;9.074;2022-08-03T03:26:14;17.10;;;12.20;;
21507;SDS011;10915;54.352;9.074;2022-08-03T03:28:40;16.17;;;13.30;;
21507;SDS011;10915;54.352;9.074;2022-08-03T03:31:06;16.47;;;12.30;;
21507;SDS011;10915;54.352;9.074;2022-08-03T03:33:33;17.70;;;12.63;;
21507;SDS011;10915;54.352;9.074;2022-08-03T03:35:59;17.47;;;12.07;;
21507;SDS011;10915;54.352;9.074;2022-08-03T03:38:25;13.93;;;11.60;;
21507;SDS011;10915;54.352;9.074;2022-08-03T03:40:51;18.43;;;12.00;;
21507;SDS011;10915;54.352;9.074;2022-08-03T03:43:17;15.43;;;11.90;;
21507;SDS011;10915;54.352;9.074;2022-08-03T03:45:44;14.40;;;11.23;;
21507;SDS011;10915;54.352;9.074;2022-08-03T03:48:11;20.30;;;13.13;;
21507;SDS011;10915;54.352;9.074;2022-08-03T03:50:37;14.30;;;10.43;;
21507;SDS011;10915;54.352;9.074;2022-08-03T03:53:07;15.43;;;11.67;;
21507;SDS011;10915;54.352;9.074;2022-08-03T03:55:35;15.85;;;13.02;;
21507;SDS011;10915;54.352;9.074;2022-08-03T03:58:02;14.33;;;10.80;;
21507;SDS011;10915;54.352;9.074;2022-08-03T04:00:28;13.70;;;11.17;;
21507;SDS011;10915;54.352;9.074;2022-08-03T04:02:54;16.30;;;10.70;;
21507;SDS011;10915;54.352;9.074;2022-08-03T04:05:20;13.37;;;9.27;;
21507;SDS011;10915;54.352;9.074;2022-08-03T04:08:08;17.92;;;11.48;;
21507;SDS011;10915;54.352;9.074;2022-08-03T04:13:36;17.03;;;11.30;;
21507;SDS011;10915;54.352;9.074;2022-08-03T04:16:05;14.60;;;9.77;;
21507;SDS011;10915;54.352;9.074;2022-08-03T04:18:34;9.87;;;7.77;;
21507;SDS011;10915;54.352;9.074;2022-08-03T04:21:03;12.37;;;8.03;;
21507;SDS011;10915;54.352;9.074;2022-08-03T04:23:33;10.33;;;7.40;;
21507;SDS011;10915;54.352;9.074;2022-08-03T04:26:01;10.77;;;7.70;;
21507;SDS011;10915;54.352;9.074;2022-08-03T04:28:29;18.77;;;10.80;;
21507;SDS011;10915;54.352;9.074;2022-08-03T04:30:56;11.57;;;9.30;;
21507;SDS011;10915;54.352;9.074;2022-08-03T04:33:27;11.83;;;9.80;;
21507;SDS011;10915;54.352;9.074;2022-08-03T04:35:55;11.83;;;9.37;;
21507;SDS011;10915;54.352;9.074;2022-08-03T04:38:23;12.70;;;9.60;;
21507;SDS011;10915;54.352;9.074;2022-08-03T04:40:51;18.17;;;10.30;;
21507;SDS011;10915;54.352;9.074;2022-08-03T04:43:18;13.97;;;11.17;;
21507;SDS011;10915;54.352;9.074;2022-08-03T04:45:46;13.13;;;10.83;;
21507;SDS011;10915;54.352;9.074;2022-08-03T04:48:13;12.07;;;10.53;;
21507;SDS011;10915;54.352;9.074;2022-08-03T04:50:40;13.73;;;12.03;;
21507;SDS011;10915;54.352;9.074;2022-08-03T04:53:06;14.63;;;11.33;;
21507;SDS011;10915;54.352;9.074;2022-08-03T04:55:33;12.67;;;10.27;;
21507;SDS011;10915;54.352;9.074;2022-08-03T04:57:59;11.87;;;9.37;;
21507;SDS011;10915;54.352;9.074;2022-08-03T05:00:27;14.97;;;10.77;;
21507;SDS011;10915;54.352;9.074;2022-08-03T05:02:52;11.73;;;8.57;;
21507;SDS011;10915;54.352;9.074;2022-08-03T05:05:19;14.30;;;9.93;;
21507;SDS011;10915;54.352;9.074;2022-08-03T05:07:46;11.97;;;9.10;;
21507;SDS011;10915;54.352;9.074;2022-08-03T05:10:12;13.10;;;9.67;;
21507;SDS011;10915;54.352;9.074;2022-08-03T05:12:38;11.83;;;9.20;;
21507;SDS011;10915;54.352;9.074;2022-08-03T05:15:04;13.67;;;9.23;;
21507;SDS011;10915;54.352;9.074;2022-08-03T05:17:31;10.27;;;8.27;;
21507;SDS011;10915;54.352;9.074;2022-08-03T05:19:58;10.60;;;7.77;;
21507;SDS011;10915;54.352;9.074;2022-08-03T05:22:24;10.73;;;8.23;;
21507;SDS011;10915;54.352;9.074;2022-08-03T05:24:51;9.53;;;7.50;;
21507;SDS011;10915;54.352;9.074;2022-08-03T05:27:16;10.13;;;7.23;;
21507;SDS011;10915;54.352;9.074;2022-08-03T05:29:45;7.77;;;5.83;;
21507;SDS011;10915;54.352;9.074;2022-08-03T05:32:12;13.30;;;7.40;;
21507;SDS011;10915;54.352;9.074;2022-08-03T05:34:38;11.47;;;6.40;;
21507;SDS011;10915;54.352;9.074;2022-08-03T05:37:04;10.27;;;6.60;;
21507;SDS011;10915;54.352;9.074;2022-08-03T05:39:31;9.10;;;6.93;;
21507;SDS011;10915;54.352;9.074;2022-08-03T05:41:57;9.03;;;6.17;;
21507;SDS011;10915;54.352;9.074;2022-08-03T05:44:22;8.90;;;5.80;;
21507;SDS011;10915;54.352;9.074;2022-08-03T05:46:49;10.97;;;6.07;;
21507;SDS011;10915;54.352;9.074;2022-08-03T05:49:15;10.97;;;7.00;;
21507;SDS011;10915;54.352;9.074;2022-08-03T05:51:41;14.07;;;6.90;;
21507;SDS011;10915;54.352;9.074;2022-08-03T05:54:06;10.70;;;6.10;;
21507;SDS011;10915;54.352;9.074;2022-08-03T05:56:32;13.77;;;5.73;;
21507;SDS011;10915;54.352;9.074;2022-08-03T05:58:57;8.10;;;4.50;;
21507;SDS011;10915;54.352;9.074;2022-08-03T06:01:23;7.83;;;4.73;;
21507;SDS011;10915;54.352;9.074;2022-08-03T06:03:49;9.43;;;4.73;;
21507;SDS011;10915;54.352;9.074;2022-08-03T06:06:16;7.30;;;4.63;;
21507;SDS011;10915;54.352;9.074;2022-08-03T06:08:42;6.13;;;3.60;;
21507;SDS011;10915;54.352;9.074;2022-08-03T06:11:09;7.67;;;4.17;;
21507;SDS011;10915;54.352;9.074;2022-08-03T06:13:35;10.97;;;4.23;;
21507;SDS011;10915;54.352;9.074;2022-08-03T06:16:01;11.03;;;3.60;;
21507;SDS011;10915;54.352;9.074;2022-08-03T06:18:27;7.83;;;3.90;;
21507;SDS011;10915;54.352;9.074;2022-08-03T06:20:53;8.07;;;4.27;;
21507;SDS011;10915;54.352;9.074;2022-08-03T06:23:19;9.93;;;3.10;;
21507;SDS011;10915;54.352;9.074;2022-08-03T06:25:44;10.33;;;3.13;;
21507;SDS011;10915;54.352;9.074;2022-08-03T06:28:10;7.67;;;3.60;;
21507;SDS011;10915;54.352;9.074;2022-08-03T06:30:38;6.73;;;3.13;;
21507;SDS011;10915;54.352;9.074;2022-08-03T06:33:04;6.13;;;3.03;;
21507;SDS011;10915;54.352;9.074;2022-08-03T06:35:29;6.43;;;2.93;;
21507;SDS011;10915;54.352;9.074;2022-08-03T06:37:55;6.33;;;3.37;;
21507;SDS011;10915;54.352;9.074;2022-08-03T06:40:21;8.80;;;3.47;;
21507;SDS011;10915;54.352;9.074;2022-08-03T06:42:53;6.23;;;3.07;;
21507;SDS011;10915;54.352;9.074;2022-08-03T06:45:22;9.47;;;3.20;;
21507;SDS011;10915;54.352;9.074;2022-08-03T06:48:00;4.50;;;2.20;;
21507;SDS011;10915;54.352;9.074;2022-08-03T06:50:33;6.50;;;2.57;;
21507;SDS011;10915;54.352;9.074;2022-08-03T06:53:00;14.37;;;2.80;;
21507;SDS011;10915;54.352;9.074;2022-08-03T06:55:26;9.57;;;2.60;;
21507;SDS011;10915;54.352;9.074;2022-08-03T06:57:52;5.43;;;2.40;;
21507;SDS011;10915;54.352;9.074;2022-08-03T07:00:18;8.10;;;2.90;;
21507;SDS011;10915;54.352;9.074;2022-08-03T07:02:44;11.07;;;3.30;;
21507;SDS011;10915;54.352;9.074;2022-08-03T07:05:09;12.17;;;2.57;;
21507;SDS011;10915;54.352;9.074;2022-08-03T07:07:35;6.10;;;2.60;;
21507;SDS011;10915;54.352;9.074;2022-08-03T07:10:02;6.13;;;2.53;;
21507;SDS011;10915;54.352;9.074;2022-08-03T07:12:29;7.27;;;3.43;;
21507;SDS011;10915;54.352;9.074;2022-08-03T07:14:56;11.70;;;3.13;;
21507;SDS011;10915;54.352;9.074;2022-08-03T07:17:22;12.80;;;3.57;;
21507;SDS011;10915;54.352;9.074;2022-08-03T07:19:48;11.70;;;2.93;;
21507;SDS011;10915;54.352;9.074;2022-08-03T07:22:14;7.93;;;2.87;;
21507;SDS011;10915;54.352;9.074;2022-08-03T07:24:40;13.50;;;3.30;;
21507;SDS011;10915;54.352;9.074;2022-08-03T07:27:09;9.57;;;3.10;;
21507;SDS011;10915;54.352;9.074;2022-08-03T07:29:35;7.37;;;3.10;;
21507;SDS011;10915;54.352;9.074;2022-08-03T07:32:04;9.17;;;2.70;;
21507;SDS011;10915;54.352;9.074;2022-08-03T07:34:30;9.07;;;3.43;;
21507;SDS011;10915;54.352;9.074;2022-08-03T07:36:56;5.90;;;2.47;;
21507;SDS011;10915;54.352;9.074;2022-08-03T07:39:21;4.80;;;3.10;;
21507;SDS011;10915;54.352;9.074;2022-08-03T07:41:47;7.00;;;2.60;;
21507;SDS011;10915;54.352;9.074;2022-08-03T07:44:15;9.63;;;2.90;;
21507;SDS011;10915;54.352;9.074;2022-08-03T07:46:41;8.97;;;3.00;;
21507;SDS011;10915;54.352;9.074;2022-08-03T07:49:07;5.27;;;2.33;;
21507;SDS011;10915;54.352;9.074;2022-08-03T07:51:33;7.87;;;2.50;;
21507;SDS011;10915;54.352;9.074;2022-08-03T07:53:59;8.10;;;2.67;;
21507;SDS011;10915;54.352;9.074;2022-08-03T07:56:25;8.47;;;2.60;;
21507;SDS011;10915;54.352;9.074;2022-08-03T07:58:51;4.40;;;2.00;;
21507;SDS011;10915;54.352;9.074;2022-08-03T08:01:17;6.60;;;2.40;;
21507;SDS011;10915;54.352;9.074;2022-08-03T08:03:44;6.93;;;2.30;;
21507;SDS011;10915;54.352;9.074;2022-08-03T08:06:10;4.63;;;2.07;;
21507;SDS011;10915;54.352;9.074;2022-08-03T08:08:36;4.77;;;2.13;;
21507;SDS011;10915;54.352;9.074;2022-08-03T08:11:03;6.07;;;2.20;;
21507;SDS011;10915;54.352;9.074;2022-08-03T08:13:29;6.83;;;2.23;;
21507;SDS011;10915;54.352;9.074;2022-08-03T08:15:54;4.80;;;2.10;;
21507;SDS011;10915;54.352;9.074;2022-08-03T08:18:20;7.57;;;2.70;;
21507;SDS011;10915;54.352;9.074;2022-08-03T08:20:48;5.67;;;2.30;;
21507;SDS011;10915;54.352;9.074;2022-08-03T08:23:14;6.27;;;2.80;;
21507;SDS011;10915;54.352;9.074;2022-08-03T08:25:39;4.67;;;2.47;;
21507;SDS011;10915;54.352;9.074;2022-08-03T08:28:05;4.50;;;2.30;;
21507;SDS011;10915;54.352;9.074;2022-08-03T08:30:31;6.10;;;2.50;;
21507;SDS011;10915;54.352;9.074;2022-08-03T08:32:58;9.80;;;2.53;;
21507;SDS011;10915;54.352;9.074;2022-08-03T08:35:23;9.57;;;3.00;;
21507;SDS011;10915;54.352;9.074;2022-08-03T08:37:49;5.27;;;2.57;;
21507;SDS011;10915;54.352;9.074;2022-08-03T08:40:15;8.90;;;3.50;;
21507;SDS011;10915;54.352;9.074;2022-08-03T08:42:41;6.97;;;2.90;;
21507;SDS011;10915;54.352;9.074;2022-08-03T08:45:08;6.53;;;2.80;;
21507;SDS011;10915;54.352;9.074;2022-08-03T08:47:36;9.60;;;3.00;;
21507;SDS011;10915;54.352;9.074;2022-08-03T08:50:03;5.70;;;2.10;;
21507;SDS011;10915;54.352;9.074;2022-08-03T08:52:31;5.67;;;2.27;;
21507;SDS011;10915;54.352;9.074;2022-08-03T08:54:59;7.00;;;2.43;;
21507;SDS011;10915;54.352;9.074;2022-08-03T08:57:31;7.17;;;2.40;;
21507;SDS011;10915;54.352;9.074;2022-08-03T09:00:00;8.97;;;2.60;;
21507;SDS011;10915;54.352;9.074;2022-08-03T09:02:28;4.70;;;2.20;;
21507;SDS011;10915;54.352;9.074;2022-08-03T09:04:54;5.87;;;2.30;;
21507;SDS011;10915;54.352;9.074;2022-08-03T09:07:21;5.57;;;2.30;;
21507;SDS011;10915;54.352;9.074;2022-08-03T09:09:47;7.83;;;3.60;;
21507;SDS011;10915;54.352;9.074;2022-08-03T09:12:13;7.13;;;2.20;;
21507;SDS011;10915;54.352;9.074;2022-08-03T09:14:39;10.33;;;2.60;;
21507;SDS011;10915;54.352;9.074;2022-08-03T09:17:04;6.50;;;2.60;;
21507;SDS011;10915;54.352;9.074;2022-08-03T09:19:31;2.67;;;1.80;;
21507;SDS011;10915;54.352;9.074;2022-08-03T09:24:37;9.10;;;2.93;;
21507;SDS011;10915;54.352;9.074;2022-08-03T09:27:17;5.53;;;2.13;;
21507;SDS011;10915;54.352;9.074;2022-08-03T09:29:46;7.30;;;2.30;;
21507;SDS011;10915;54.352;9.074;2022-08-03T09:32:18;6.80;;;1.73;;
21507;SDS011;10915;54.352;9.074;2022-08-03T09:34:46;5.30;;;1.90;;
21507;SDS011;10915;54.352;9.074;2022-08-03T09:37:13;4.77;;;1.70;;
21507;SDS011;10915;54.352;9.074;2022-08-03T09:39:44;4.97;;;2.13;;
21507;SDS011;10915;54.352;9.074;2022-08-03T09:42:14;7.13;;;2.47;;
21507;SDS011;10915;54.352;9.074;2022-08-03T09:44:42;8.47;;;2.80;;
21507;SDS011;10915;54.352;9.074;2022-08-03T09:47:10;7.27;;;1.87;;
21507;SDS011;10915;54.352;9.074;2022-08-03T09:49:37;4.27;;;2.00;;
21507;SDS011;10915;54.352;9.074;2022-08-03T09:52:15;9.43;;;2.80;;
21507;SDS011;10915;54.352;9.074;2022-08-03T09:54:50;6.72;;;2.60;;
21507;SDS011;10915;54.352;9.074;2022-08-03T09:57:22;10.15;;;2.90;;
21507;SDS011;10915;54.352;9.074;2022-08-03T09:59:50;5.33;;;2.43;;
21507;SDS011;10915;54.352;9.074;2022-08-03T10:02:23;43.33;;;29.25;;
21507;SDS011;10915;54.352;9.074;2022-08-03T10:04:51;19.65;;;14.80;;
21507;SDS011;10915;54.352;9.074;2022-08-03T10:07:21;12.30;;;6.07;;
21507;SDS011;10915;54.352;9.074;2022-08-03T10:14:55;8.05;;;3.15;;
21507;SDS011;10915;54.352;9.074;2022-08-03T10:17:21;9.00;;;3.13;;
21507;SDS011;10915;54.352;9.074;2022-08-03T10:19:47;8.30;;;3.22;;
21507;SDS011;10915;54.352;9.074;2022-08-03T10:22:23;12.32;;;3.17;;
21507;SDS011;10915;54.352;9.074;2022-08-03T10:24:55;9.23;;;3.33;;
21507;SDS011;10915;54.352;9.074;2022-08-03T10:27:24;7.40;;;2.70;;
21507;SDS011;10915;54.352;9.074;2022-08-03T10:29:52;6.28;;;3.28;;
21507;SDS011;10915;54.352;9.074;2022-08-03T10:32:21;8.32;;;3.10;;
21507;SDS011;10915;54.352;9.074;2022-08-03T10:34:50;6.10;;;2.78;;
21507;SDS011;10915;54.352;9.074;2022-08-03T10:37:22;11.70;;;3.35;;
21507;SDS011;10915;54.352;9.074;2022-08-03T10:39:51;10.93;;;3.22;;
21507;SDS011;10915;54.352;9.074;2022-08-03T10:42:27;6.35;;;2.60;;
21507;SDS011;10915;54.352;9.074;2022-08-03T10:45:05;7.15;;;2.28;;
21507;SDS011;10915;54.352;9.074;2022-08-03T10:47:33;6.30;;;3.10;;
21507;SDS011;10915;54.352;9.074;2022-08-03T10:49:59;4.95;;;2.45;;
21507;SDS011;10915;54.352;9.074;2022-08-03T10:52:26;5.97;;;2.33;;
21507;SDS011;10915;54.352;9.074;2022-08-03T10:54:52;5.22;;;2.60;;
21507;SDS011;10915;54.352;9.074;2022-08-03T10:57:50;5.68;;;2.83;;
21507;SDS011;10915;54.352;9.074;2022-08-03T11:00:20;10.10;;;2.63;;
21507;SDS011;10915;54.352;9.074;2022-08-03T11:05:30;6.72;;;1.77;;
21507;SDS011;10915;54.352;9.074;2022-08-03T11:10:53;8.00;;;2.13;;
21507;SDS011;10915;54.352;9.074;2022-08-03T11:13:21;6.07;;;2.40;;
21507;SDS011;10915;54.352;9.074;2022-08-03T11:15:50;5.90;;;2.20;;
21507;SDS011;10915;54.352;9.074;2022-08-03T11:18:18;6.78;;;2.35;;
21507;SDS011;10915;54.352;9.074;2022-08-03T11:23:10;4.40;;;1.95;;
21507;SDS011;10915;54.352;9.074;2022-08-03T11:26:07;7.82;;;2.10;;
21507;SDS011;10915;54.352;9.074;2022-08-03T11:28:35;6.57;;;2.30;;
21507;SDS011;10915;54.352;9.074;2022-08-03T11:34:05;8.65;;;2.33;;
21507;SDS011;10915;54.352;9.074;2022-08-03T11:42:54;4.85;;;1.77;;
21507;SDS011;10915;54.352;9.074;2022-08-03T11:44:59;3.67;;;1.85;;
21507;SDS011;10915;54.352;9.074;2022-08-03T11:47:26;5.90;;;2.58;;
21507;SDS011;10915;54.352;9.074;2022-08-03T11:49:53;5.15;;;1.90;;
21507;SDS011;10915;54.352;9.074;2022-08-03T11:52:26;5.30;;;1.98;;
21507;SDS011;10915;54.352;9.074;2022-08-03T11:54:57;6.00;;;1.95;;
21507;SDS011;10915;54.352;9.074;2022-08-03T11:57:30;7.43;;;1.63;;
21507;SDS011;10915;54.352;9.074;2022-08-03T11:59:56;6.57;;;1.90;;
21507;SDS011;10915;54.352;9.074;2022-08-03T12:02:22;4.63;;;1.92;;
21507;SDS011;10915;54.352;9.074;2022-08-03T12:04:57;5.18;;;2.17;;
21507;SDS011;10915;54.352;9.074;2022-08-03T12:07:27;3.42;;;1.80;;
21507;SDS011;10915;54.352;9.074;2022-08-03T12:10:07;6.15;;;2.33;;
21507;SDS011;10915;54.352;9.074;2022-08-03T12:12:34;4.72;;;1.83;;
21507;SDS011;10915;54.352;9.074;2022-08-03T12:15:01;5.28;;;2.33;;
21507;SDS011;10915;54.352;9.074;2022-08-03T12:17:37;5.13;;;1.90;;
21507;SDS011;10915;54.352;9.074;2022-08-03T12:20:05;5.15;;;2.28;;
21507;SDS011;10915;54.352;9.074;2022-08-03T12:22:34;4.50;;;1.98;;
21507;SDS011;10915;54.352;9.074;2022-08-03T12:25:01;5.20;;;1.80;;
21507;SDS011;10915;54.352;9.074;2022-08-03T12:27:31;6.35;;;2.10;;
21507;SDS011;10915;54.352;9.074;2022-08-03T12:29:58;7.22;;;2.08;;
21507;SDS011;10915;54.352;9.074;2022-08-03T12:32:25;3.88;;;1.80;;
21507;SDS011;10915;54.352;9.074;2022-08-03T12:34:53;7.32;;;1.88;;
21507;SDS011;10915;54.352;9.074;2022-08-03T12:37:23;2.28;;;1.60;;
21507;SDS011;10915;54.352;9.074;2022-08-03T12:39:50;4.45;;;1.90;;
21507;SDS011;10915;54.352;9.074;2022-08-03T12:42:16;5.57;;;1.70;;
21507;SDS011;10915;54.352;9.074;2022-08-03T12:44:42;4.05;;;1.75;;
21507;SDS011;10915;54.352;9.074;2022-08-03T12:47:09;3.67;;;1.63;;
21507;SDS011;10915;54.352;9.074;2022-08-03T12:49:46;6.72;;;1.88;;
21507;SDS011;10915;54.352;9.074;2022-08-03T12:52:17;2.95;;;1.55;;
21507;SDS011;10915;54.352;9.074;2022-08-03T12:57:44;5.20;;;1.55;;
21507;SDS011;10915;54.352;9.074;2022-08-03T13:00:14;4.03;;;1.30;;
21507;SDS011;10915;54.352;9.074;2022-08-03T13:02:41;4.47;;;1.52;;
21507;SDS011;10915;54.352;9.074;2022-08-03T13:05:11;2.42;;;1.30;;
21507;SDS011;10915;54.352;9.074;2022-08-03T13:07:41;4.85;;;1.80;;
21507;SDS011;10915;54.352;9.074;2022-08-03T13:10:09;5.05;;;1.73;;
21507;SDS011;10915;54.352;9.074;2022-08-03T13:12:47;4.88;;;1.80;;
21507;SDS011;10915;54.352;9.074;2022-08-03T13:15:14;5.82;;;2.50;;
21507;SDS011;10915;54.352;9.074;2022-08-03T13:17:39;2.95;;;1.35;;
21507;SDS011;10915;54.352;9.074;2022-08-03T13:20:06;5.22;;;1.70;;
21507;SDS011;10915;54.352;9.074;2022-08-03T13:22:32;4.20;;;1.48;;
21507;SDS011;10915;54.352;9.074;2022-08-03T13:24:58;4.43;;;1.85;;
21507;SDS011;10915;54.352;9.074;2022-08-03T13:27:25;4.47;;;1.67;;
21507;SDS011;10915;54.352;9.074;2022-08-03T13:29:52;3.63;;;1.50;;
21507;SDS011;10915;54.352;9.074;2022-08-03T13:32:18;4.20;;;1.60;;
21507;SDS011;10915;54.352;9.074;2022-08-03T13:34:45;6.18;;;2.28;;
21507;SDS011;10915;54.352;9.074;2022-08-03T13:37:11;4.97;;;1.40;;
21507;SDS011;10915;54.352;9.074;2022-08-03T13:39:37;4.78;;;1.60;;
21507;SDS011;10915;54.352;9.074;2022-08-03T13:42:03;5.45;;;2.05;;
21507;SDS011;10915;54.352;9.074;2022-08-03T13:44:29;8.10;;;1.90;;
21507;SDS011;10915;54.352;9.074;2022-08-03T13:46:55;5.38;;;1.85;;
21507;SDS011;10915;54.352;9.074;2022-08-03T13:49:21;6.60;;;1.90;;
21507;SDS011;10915;54.352;9.074;2022-08-03T13:51:47;4.85;;;1.77;;
21507;SDS011;10915;54.352;9.074;2022-08-03T13:54:13;7.72;;;1.95;;
21507;SDS011;10915;54.352;9.074;2022-08-03T13:56:39;3.67;;;1.65;;
21507;SDS011;10915;54.352;9.074;2022-08-03T13:59:04;3.47;;;1.85;;
21507;SDS011;10915;54.352;9.074;2022-08-03T14:01:30;7.32;;;1.80;;
21507;SDS011;10915;54.352;9.074;2022-08-03T14:03:56;6.32;;;1.98;;
21507;SDS011;10915;54.352;9.074;2022-08-03T14:06:22;6.40;;;2.05;;
21507;SDS011;10915;54.352;9.074;2022-08-03T14:08:49;7.00;;;2.00;;
21507;SDS011;10915;54.352;9.074;2022-08-03T14:11:15;4.85;;;1.52;;
21507;SDS011;10915;54.352;9.074;2022-08-03T14:13:41;5.53;;;1.75;;
21507;SDS011;10915;54.352;9.074;2022-08-03T14:16:07;4.68;;;1.98;;
21507;SDS011;10915;54.352;9.074;2022-08-03T14:18:33;5.90;;;2.40;;
21507;SDS011;10915;54.352;9.074;2022-08-03T14:20:59;6.55;;;1.77;;
21507;SDS011;10915;54.352;9.074;2022-08-03T14:23:26;5.80;;;1.60;;
21507;SDS011;10915;54.352;9.074;2022-08-03T14:25:52;4.82;;;1.60;;
21507;SDS011;10915;54.352;9.074;2022-08-03T14:28:18;6.05;;;1.83;;
21507;SDS011;10915;54.352;9.074;2022-08-03T14:30:52;3.22;;;1.42;;
21507;SDS011;10915;54.352;9.074;2022-08-03T14:33:19;7.20;;;2.08;;
21507;SDS011;10915;54.352;9.074;2022-08-03T14:35:46;3.65;;;1.65;;
21507;SDS011;10915;54.352;9.074;2022-08-03T14:38:13;5.97;;;1.55;;
21507;SDS011;10915;54.352;9.074;2022-08-03T14:40:39;4.00;;;1.30;;
21507;SDS011;10915;54.352;9.074;2022-08-03T14:43:05;5.03;;;1.80;;
21507;SDS011;10915;54.352;9.074;2022-08-03T14:45:31;5.35;;;1.60;;
21507;SDS011;10915;54.352;9.074;2022-08-03T14:47:58;2.20;;;1.40;;
21507;SDS011;10915;54.352;9.074;2022-08-03T14:50:26;6.88;;;1.90;;
21507;SDS011;10915;54.352;9.074;2022-08-03T14:52:55;6.63;;;2.00;;
21507;SDS011;10915;54.352;9.074;2022-08-03T14:55:20;5.18;;;1.58;;
21507;SDS011;10915;54.352;9.074;2022-08-03T14:57:46;3.47;;;1.65;;
21507;SDS011;10915;54.352;9.074;2022-08-03T15:00:12;8.00;;;1.92;;
21507;SDS011;10915;54.352;9.074;2022-08-03T15:02:38;3.22;;;1.50;;
21507;SDS011;10915;54.352;9.074;2022-08-03T15:05:04;3.35;;;1.45;;
21507;SDS011;10915;54.352;9.074;2022-08-03T15:07:30;5.35;;;2.05;;
21507;SDS011;10915;54.352;9.074;2022-08-03T15:09:56;3.50;;;1.58;;
21507;SDS011;10915;54.352;9.074;2022-08-03T15:12:22;5.07;;;1.70;;
21507;SDS011;10915;54.352;9.074;2022-08-03T15:14:47;3.03;;;1.42;;
21507;SDS011;10915;54.352;9.074;2022-08-03T15:17:13;2.40;;;1.20;;
21507;SDS011;10915;54.352;9.074;2022-08-03T15:19:38;6.53;;;1.60;;
21507;SDS011;10915;54.352;9.074;2022-08-03T15:22:04;3.33;;;1.52;;
21507;SDS011;10915;54.352;9.074;2022-08-03T15:24:30;4.60;;;1.90;;
21507;SDS011;10915;54.352;9.074;2022-08-03T15:26:56;5.93;;;2.40;;
21507;SDS011;10915;54.352;9.074;2022-08-03T15:29:21;3.95;;;1.80;;
21507;SDS011;10915;54.352;9.074;2022-08-03T15:31:47;5.53;;;1.65;;